Time;durP1;ratioP1;P1;durP2;ratioP2;P2;SDS_P1;SDS_P2;PMS_P1;PMS_P2;Temp;Humidity;BMP_temperature;BMP_pressure;BME280_temperature;BME280_humidity;BME280_pressure;Samples;Min_cycle;Max_cycle;Signal;HPM_P1;HPM_P2
2024/03/02 00:00:38;;;;;;;19.47;10.33;;;;;;;-145.69;66.69;52309.72;5116362;28;20198;-83
2024/03/02 00:03:09;;;;;;;22.00;9.70;;;;;;;-145.69;66.39;52321.59;5115855;28;20189;-83
2024/03/02 00:05:36;;;;;;;19.70;10.10;;;;;;;-145.69;65.69;52311.69;5116671;28;20201;-82
2024/03/02 00:08:05;;;;;;;19.33;9.30;;;;;;;-145.69;65.81;52335.47;5116591;28;20205;-82
2024/03/02 00:10:39;;;;;;;16.17;9.03;;;;;;;-145.69;65.73;52337.44;5116503;28;20293;-82
2024/03/02 00:13:06;;;;;;;16.13;8.27;;;;;;;-145.69;66.12;52373.09;5116679;27;20210;-82
2024/03/02 00:15:43;;;;;;;17.37;8.87;;;;;;;-145.69;66.38;52343.38;5115730;28;20201;-82
2024/03/02 00:18:12;;;;;;;23.63;9.30;;;;;;;-145.69;66.53;52343.38;5116180;28;20228;-82
2024/03/02 00:20:39;;;;;;;16.93;8.87;;;;;;;-145.69;66.85;52341.41;5115937;28;20242;-81
2024/03/02 00:23:06;;;;;;;18.50;8.67;;;;;;;-145.69;67.08;52329.53;5115785;28;20201;-81
2024/03/02 00:25:41;;;;;;;16.70;8.90;;;;;;;-145.69;67.49;52337.44;5115849;28;20197;-81
2024/03/02 00:28:14;;;;;;;18.30;8.90;;;;;;;-145.69;67.73;52345.38;5115818;28;20284;-81
2024/03/02 00:30:52;;;;;;;15.63;8.63;;;;;;;-145.69;67.39;52341.41;5115884;28;20198;-82
2024/03/02 00:33:20;;;;;;;18.47;9.07;;;;;;;-145.69;67.24;52341.41;5115920;28;20205;-81
2024/03/02 00:35:47;;;;;;;18.27;9.20;;;;;;;-145.69;67.15;52359.22;5115928;28;20194;-80
2024/03/02 00:38:15;;;;;;;15.43;8.53;;;;;;;-145.69;67.55;52369.13;5115432;28;20193;-81
2024/03/02 00:40:42;;;;;;;15.83;8.80;;;;;;;-145.69;67.20;52381.00;5113714;28;20197;-81
2024/03/02 00:43:29;;;;;;;17.97;8.97;;;;;;;-145.69;68.02;52384.97;5114996;27;20193;-81
2024/03/02 00:45:56;;;;;;;17.67;9.00;;;;;;;-145.69;67.72;52353.28;5115335;28;20197;-81
2024/03/02 00:48:24;;;;;;;16.33;7.90;;;;;;;-145.69;68.17;52349.31;5114469;28;20208;-81
2024/03/02 00:50:52;;;;;;;17.93;9.17;;;;;;;-145.69;68.12;52327.53;5115074;28;20540;-81
2024/03/02 00:53:24;;;;;;;15.93;8.90;;;;;;;-145.69;68.47;52329.53;5115573;27;20202;-81
2024/03/02 00:55:51;;;;;;;16.40;8.70;;;;;;;-145.69;68.44;52317.66;5120007;27;20193;-81
2024/03/02 00:58:17;;;;;;;16.40;7.20;;;;;;;-145.69;68.20;52353.28;5117110;27;20257;-81
2024/03/02 01:00:44;;;;;;;16.83;8.77;;;;;;;-145.69;68.77;52373.09;5115531;28;20208;-81
2024/03/02 01:03:11;;;;;;;15.80;8.17;;;;;;;-145.69;69.05;52325.56;5115075;28;20202;-81
2024/03/02 01:05:42;;;;;;;13.87;7.77;;;;;;;-145.69;68.15;52351.31;5114543;28;20732;-81
2024/03/02 01:08:08;;;;;;;14.17;7.47;;;;;;;-145.69;68.68;52347.34;5114978;28;20274;-81
2024/03/02 01:10:34;;;;;;;14.90;7.40;;;;;;;-145.69;68.25;52394.88;5115103;28;20209;-81
2024/03/02 01:13:01;;;;;;;13.77;8.30;;;;;;;-145.69;68.63;52367.16;5115099;28;20251;-81
2024/03/02 01:15:27;;;;;;;15.37;7.37;;;;;;;-145.69;68.64;52343.38;5115061;28;20197;-81
2024/03/02 01:17:54;;;;;;;15.03;6.97;;;;;;;-145.69;68.79;52353.28;5115029;28;20201;-80
2024/03/02 01:20:21;;;;;;;15.57;7.63;;;;;;;-145.69;68.61;52367.16;5115098;28;20220;-81
2024/03/02 01:22:49;;;;;;;14.53;7.33;;;;;;;-145.69;68.79;52361.22;5114900;28;20297;-81
2024/03/02 01:25:15;;;;;;;16.33;8.33;;;;;;;-145.69;68.89;52341.41;5115006;28;20201;-81
2024/03/02 01:27:42;;;;;;;17.43;8.67;;;;;;;-145.69;68.67;52339.44;5125878;27;20290;-80
2024/03/02 01:30:11;;;;;;;15.57;8.13;;;;;;;-145.69;68.79;52349.31;5114676;28;20266;-82
2024/03/02 01:32:38;;;;;;;17.07;9.13;;;;;;;-145.69;68.07;52349.31;5114864;28;20713;-82
2024/03/02 01:35:06;;;;;;;16.13;7.47;;;;;;;-145.69;67.38;52333.47;5114837;28;20205;-80
2024/03/02 01:37:33;;;;;;;13.87;6.80;;;;;;;-145.69;67.28;52369.13;5114984;28;20572;-82
2024/03/02 01:40:01;;;;;;;12.97;6.67;;;;;;;-145.69;68.00;52317.66;5114311;28;20209;-82
2024/03/02 01:42:27;;;;;;;10.17;6.00;;;;;;;-145.69;67.79;52349.31;5114235;28;20201;-83
2024/03/02 01:44:53;;;;;;;11.60;6.50;;;;;;;-145.69;67.95;52329.53;5114674;28;20198;-82
2024/03/02 01:47:20;;;;;;;10.47;6.20;;;;;;;-145.69;67.73;52353.28;5113897;28;20274;-81
2024/03/02 01:49:46;;;;;;;11.67;6.27;;;;;;;-145.69;67.38;52373.09;5114668;28;20201;-81
2024/03/02 01:52:13;;;;;;;15.67;6.50;;;;;;;-145.69;66.91;52363.19;5113965;28;20266;-81
2024/03/02 01:54:39;;;;;;;13.80;5.83;;;;;;;-145.69;66.60;52355.28;5114454;28;20208;-81
2024/03/02 01:57:07;;;;;;;10.10;5.50;;;;;;;-145.69;67.20;52365.16;5127667;27;20205;-81
2024/03/02 01:59:34;;;;;;;11.40;6.03;;;;;;;-145.69;66.89;52343.38;5134675;27;20196;-81
2024/03/02 02:02:01;;;;;;;12.63;6.90;;;;;;;-145.69;66.57;52355.28;5134735;27;20200;-82
2024/03/02 02:04:27;;;;;;;14.60;6.90;;;;;;;-145.69;67.10;52351.31;5134756;27;20226;-81
2024/03/02 02:06:54;;;;;;;16.70;7.23;;;;;;;-145.69;67.89;52341.41;5120875;27;20304;-81
2024/03/02 02:09:21;;;;;;;12.53;5.87;;;;;;;-145.69;67.66;52369.13;5114097;28;20655;-81
2024/03/02 02:11:47;;;;;;;14.50;6.70;;;;;;;-145.69;67.58;52357.25;5114157;28;20566;-81
2024/03/02 02:14:15;;;;;;;12.03;6.27;;;;;;;-145.69;68.67;52363.19;5113742;28;20193;-82
2024/03/02 02:16:42;;;;;;;11.13;6.17;;;;;;;-145.69;68.15;52377.06;5113944;28;20208;-81
2024/03/02 02:19:09;;;;;;;13.43;6.40;;;;;;;-145.69;68.20;52369.13;5113672;28;20201;-82
2024/03/02 02:21:37;;;;;;;11.37;5.93;;;;;;;-145.69;67.95;52329.53;5113903;28;20667;-81
2024/03/02 02:24:03;;;;;;;9.40;5.63;;;;;;;-145.69;68.58;52353.28;5113861;28;20193;-82
2024/03/02 02:26:30;;;;;;;18.43;6.93;;;;;;;-145.69;68.73;52359.22;5112179;27;20205;-81
2024/03/02 02:28:56;;;;;;;12.40;6.23;;;;;;;-145.69;68.80;52379.03;5112912;28;20201;-82
2024/03/02 02:31:23;;;;;;;12.73;6.40;;;;;;;-145.69;69.17;52375.06;5113763;28;20209;-82
2024/03/02 02:33:49;;;;;;;21.10;6.70;;;;;;;-145.69;69.06;52384.97;5113502;28;20202;-82
2024/03/02 02:36:16;;;;;;;12.30;5.63;;;;;;;-145.69;68.22;52367.16;5113342;28;20201;-82
2024/03/02 02:38:47;;;;;;;11.23;5.63;;;;;;;-145.69;70.50;52369.13;5113158;28;20205;-82
2024/03/02 02:41:14;;;;;;;11.80;6.37;;;;;;;-145.69;70.60;52383.00;5113346;28;20655;-82
2024/03/02 02:43:40;;;;;;;16.67;6.87;;;;;;;-145.69;70.43;52379.03;5113039;28;20201;-82
2024/03/02 02:46:06;;;;;;;14.10;6.27;;;;;;;-145.69;70.12;52367.16;5113002;28;20193;-83
2024/03/02 02:48:32;;;;;;;11.87;6.20;;;;;;;-145.69;69.46;52331.50;5113099;28;20270;-82
2024/03/02 02:50:58;;;;;;;12.93;6.17;;;;;;;-145.69;69.04;52373.09;5112813;28;20237;-82
2024/03/02 02:53:25;;;;;;;15.83;6.63;;;;;;;-145.69;69.73;52388.94;5113054;28;20201;-82
2024/03/02 02:55:53;;;;;;;14.20;6.97;;;;;;;-145.69;70.63;52353.28;5117682;27;20192;-82
2024/03/02 02:58:19;;;;;;;14.70;7.47;;;;;;;-145.69;69.81;52341.41;5134126;27;20212;-82
2024/03/02 03:00:46;;;;;;;13.93;7.00;;;;;;;-145.69;69.69;52369.13;5133450;27;20205;-81
2024/03/02 03:03:12;;;;;;;15.57;6.70;;;;;;;-145.69;70.22;52353.28;5133232;27;20196;-81
2024/03/02 03:05:38;;;;;;;12.97;6.67;;;;;;;-145.69;70.27;52377.06;5116393;27;20655;-81
2024/03/02 03:08:05;;;;;;;13.47;6.43;;;;;;;-145.69;69.43;52384.97;5112911;28;20226;-81
2024/03/02 03:10:33;;;;;;;14.73;6.87;;;;;;;-145.69;69.79;52383.00;5113051;27;20648;-81
2024/03/02 03:13:00;;;;;;;10.03;5.60;;;;;;;-145.69;69.75;52377.06;5112819;28;20200;-81
2024/03/02 03:15:27;;;;;;;11.93;6.10;;;;;;;-145.69;69.74;52384.97;5113199;28;20232;-82
2024/03/02 03:17:53;;;;;;;13.17;7.13;;;;;;;-145.69;70.74;52381.00;5112824;28;20645;-81
2024/03/02 03:20:21;;;;;;;16.43;6.40;;;;;;;-145.69;70.37;52388.94;5113128;28;20197;-82
2024/03/02 03:22:47;;;;;;;12.90;5.93;;;;;;;-145.69;70.21;52343.38;5113844;28;20209;-81
2024/03/02 03:25:14;;;;;;;11.80;5.80;;;;;;;-145.69;70.13;52371.13;5112856;28;20242;-82
2024/03/02 03:27:41;;;;;;;12.17;6.07;;;;;;;-145.69;70.01;52327.53;5112690;28;20224;-82
2024/03/02 03:30:10;;;;;;;9.30;5.70;;;;;;;-145.69;70.23;52383.00;5112654;28;20205;-82
2024/03/02 03:32:37;;;;;;;13.00;6.03;;;;;;;-145.69;70.66;52379.03;5113298;28;20201;-81
2024/03/02 03:35:04;;;;;;;11.17;5.60;;;;;;;-145.69;70.97;52390.91;5112863;28;20197;-81
2024/03/02 03:37:32;;;;;;;14.20;6.90;;;;;;;-145.69;70.50;52363.19;5112777;28;20828;-81
2024/03/02 03:39:59;;;;;;;16.87;6.57;;;;;;;-145.69;71.00;52349.31;5112820;28;20194;-81
2024/03/02 03:42:26;;;;;;;14.50;6.43;;;;;;;-145.69;71.01;52333.47;5112528;28;20246;-80
2024/03/02 03:44:52;;;;;;;16.27;6.47;;;;;;;-145.69;70.18;52410.72;5112950;28;20197;-81
2024/03/02 03:47:20;;;;;;;13.97;6.40;;;;;;;-145.69;70.39;52396.84;5112131;28;20236;-81
2024/03/02 03:49:47;;;;;;;12.43;5.73;;;;;;;-145.69;69.92;52392.91;5112773;28;20193;-81
2024/03/02 03:52:13;;;;;;;11.90;5.93;;;;;;;-145.69;69.96;52379.03;5112580;28;20225;-81
2024/03/02 03:54:39;;;;;;;12.77;6.07;;;;;;;-145.69;69.69;52369.13;5112090;28;20548;-81
2024/03/02 03:57:06;;;;;;;15.23;6.10;;;;;;;-145.69;70.12;52359.22;5112778;28;20209;-81
2024/03/02 03:59:33;;;;;;;14.03;6.67;;;;;;;-145.69;70.31;52400.81;5112583;28;20197;-81
2024/03/02 04:02:00;;;;;;;15.23;7.63;;;;;;;-145.69;70.02;52388.94;5112490;28;20197;-81
2024/03/02 04:04:28;;;;;;;14.10;6.17;;;;;;;-145.69;70.36;52345.38;5111900;28;20254;-81
2024/03/02 04:06:54;;;;;;;14.30;6.13;;;;;;;-145.69;71.00;52367.16;5112765;28;20220;-81
2024/03/02 04:09:21;;;;;;;12.53;6.57;;;;;;;-145.69;70.30;52384.97;5112402;28;20251;-82
2024/03/02 04:11:47;;;;;;;12.80;6.60;;;;;;;-145.69;71.10;52384.97;5112610;28;20201;-81
2024/03/02 04:14:14;;;;;;;14.17;7.13;;;;;;;-145.69;70.65;52396.84;5112655;28;20198;-81
2024/03/02 04:16:40;;;;;;;14.67;6.47;;;;;;;-145.69;70.66;52412.69;5116047;28;20220;-82
2024/03/02 04:19:07;;;;;;;11.63;5.83;;;;;;;-145.69;70.60;52396.84;5116126;28;20204;-80
2024/03/02 04:21:35;;;;;;;13.70;6.27;;;;;;;-145.69;71.19;52392.91;5116035;28;20212;-82
2024/03/02 04:24:01;;;;;;;13.73;6.73;;;;;;;-145.69;71.50;52373.09;5115458;28;20197;-81
2024/03/02 04:26:27;;;;;;;14.83;6.53;;;;;;;-145.69;71.08;52396.84;5115910;28;20205;-82
2024/03/02 04:28:54;;;;;;;13.40;5.80;;;;;;;-145.69;71.82;52367.16;5115795;28;20587;-80
2024/03/02 04:31:20;;;;;;;13.90;6.50;;;;;;;-145.69;71.50;52392.91;5115796;28;20209;-81
2024/03/02 04:33:47;;;;;;;16.87;7.80;;;;;;;-145.69;71.19;52369.13;5115904;28;20675;-80
2024/03/02 04:36:13;;;;;;;17.57;8.13;;;;;;;-145.69;71.83;52379.03;5116230;28;20201;-82
2024/03/02 04:38:41;;;;;;;17.30;7.73;;;;;;;-145.69;71.15;52365.16;5115842;28;20198;-81
2024/03/02 04:41:08;;;;;;;16.00;7.03;;;;;;;-145.69;70.43;52396.84;5115405;28;20209;-80
2024/03/02 04:43:35;;;;;;;19.80;8.27;;;;;;;-145.69;72.67;52386.97;5115933;28;20435;-81
2024/03/02 04:46:02;;;;;;;18.33;8.40;;;;;;;-145.69;71.79;52381.00;5115566;27;20888;-81
2024/03/02 04:48:28;;;;;;;17.33;7.73;;;;;;;-145.69;71.05;52390.91;5115491;28;20228;-82
2024/03/02 04:50:55;;;;;;;17.27;8.00;;;;;;;-145.69;70.99;52384.97;5115624;28;20221;-81
2024/03/02 04:53:21;;;;;;;17.10;8.07;;;;;;;-145.69;72.13;52381.00;5115325;28;20209;-82
2024/03/02 04:56:27;;;;;;;26.60;9.53;;;;;;;-145.69;72.49;52384.97;5114368;27;20383;-81
2024/03/02 04:58:53;;;;;;;18.03;8.60;;;;;;;-145.69;71.97;52438.44;5113965;28;20197;-81
2024/03/02 05:01:20;;;;;;;17.50;8.57;;;;;;;-145.69;71.84;52414.69;5114770;28;20341;-80
2024/03/02 05:03:46;;;;;;;19.80;7.80;;;;;;;-145.69;71.46;52394.88;5115384;28;20224;-81
2024/03/02 05:06:13;;;;;;;19.87;8.47;;;;;;;-145.69;71.77;52353.28;5115102;28;20196;-81
2024/03/02 05:08:39;;;;;;;20.53;8.17;;;;;;;-145.69;72.12;52388.94;5114766;28;20228;-82
2024/03/02 05:13:51;;;;;;;21.67;8.37;;;;;;;-145.69;71.91;52361.22;5115275;28;20200;-81
2024/03/02 05:16:17;;;;;;;17.80;8.00;;;;;;;-145.69;70.74;52373.09;5115395;28;20222;-81
2024/03/02 05:18:44;;;;;;;14.97;7.37;;;;;;;-145.69;70.46;52379.03;5114661;28;20208;-80
2024/03/02 05:21:11;;;;;;;16.43;7.50;;;;;;;-145.69;70.53;52386.97;5114768;28;20197;-81
2024/03/02 05:23:37;;;;;;;16.37;7.20;;;;;;;-145.69;71.20;52365.16;5115408;28;20202;-82
2024/03/02 05:26:04;;;;;;;17.37;7.73;;;;;;;-145.69;71.73;52369.13;5113886;28;20715;-82
2024/03/02 05:28:32;;;;;;;16.53;7.83;;;;;;;-145.69;71.57;52369.13;5114275;28;20217;-81
2024/03/02 05:30:58;;;;;;;19.03;8.33;;;;;;;-145.69;71.98;52390.91;5114771;28;20652;-82
2024/03/02 05:33:25;;;;;;;18.40;8.17;;;;;;;-145.69;72.36;52377.06;5114848;28;20267;-81
2024/03/02 05:35:51;;;;;;;22.70;9.27;;;;;;;-145.69;71.95;52373.09;5114375;28;20205;-80
2024/03/02 05:38:18;;;;;;;20.03;8.57;;;;;;;-145.69;72.07;52369.13;5114783;28;20251;-80
2024/03/02 05:40:44;;;;;;;16.57;8.13;;;;;;;-145.69;72.31;52367.16;5114665;28;20201;-80
2024/03/02 05:43:11;;;;;;;19.50;7.73;;;;;;;-145.69;72.13;52386.97;5114625;28;20209;-80
2024/03/02 05:45:39;;;;;;;17.43;7.17;;;;;;;-145.69;72.35;52402.78;5114246;28;20197;-80
2024/03/02 05:48:07;;;;;;;15.73;7.23;;;;;;;-145.69;71.46;52373.09;5114301;28;20307;-80
2024/03/02 05:50:33;;;;;;;17.87;7.93;;;;;;;-145.69;71.79;52373.09;5114342;28;20193;-81
2024/03/02 05:53:00;;;;;;;14.03;7.20;;;;;;;-145.69;71.62;52369.13;5114386;28;20211;-81
2024/03/02 05:55:26;;;;;;;13.77;6.20;;;;;;;-145.69;70.98;52384.97;5114043;27;20192;-81
2024/03/02 05:58:11;;;;;;;13.80;6.20;;;;;;;-145.69;70.97;52400.81;5114802;27;20204;-80
2024/03/02 06:00:39;;;;;;;14.37;7.20;;;;;;;-145.69;70.75;52396.84;5114238;27;20820;-80
2024/03/02 06:03:06;;;;;;;15.73;6.77;;;;;;;-145.69;71.63;52408.75;5114021;28;20605;-80
2024/03/02 06:05:32;;;;;;;13.57;7.00;;;;;;;-145.69;72.37;52412.69;5113928;28;20193;-80
2024/03/02 06:07:58;;;;;;;15.47;6.80;;;;;;;-145.69;72.55;52392.91;5114476;28;20229;-81
2024/03/02 06:10:25;;;;;;;14.60;7.03;;;;;;;-145.69;72.58;52408.75;5114206;28;20198;-79
2024/03/02 06:12:51;;;;;;;14.60;6.57;;;;;;;-145.69;72.19;52400.81;5113859;28;20205;-80
2024/03/02 06:15:18;;;;;;;13.17;6.87;;;;;;;-145.69;71.88;52386.97;5113836;28;20260;-81
2024/03/02 06:17:46;;;;;;;16.60;6.67;;;;;;;-145.69;71.05;52396.84;5113718;28;20247;-81
2024/03/02 06:20:13;;;;;;;13.60;6.87;;;;;;;-145.69;71.28;52373.09;5114556;28;20207;-80
2024/03/02 06:22:39;;;;;;;11.60;5.93;;;;;;;-145.69;70.44;52390.91;5113999;28;20209;-82
2024/03/02 06:25:06;;;;;;;14.43;6.00;;;;;;;-145.69;70.85;52381.00;5113596;28;20204;-80
2024/03/02 06:27:33;;;;;;;13.20;6.37;;;;;;;-145.69;70.89;52379.03;5113106;28;20197;-81
2024/03/02 06:29:59;;;;;;;15.10;6.17;;;;;;;-145.69;70.00;52369.13;5113431;28;20289;-80
2024/03/02 06:32:25;;;;;;;11.63;5.57;;;;;;;-145.69;70.22;52384.97;5113290;28;20198;-80
2024/03/02 06:34:53;;;;;;;11.37;5.53;;;;;;;-145.69;70.55;52384.97;5113686;28;20284;-80
2024/03/02 06:37:20;;;;;;;18.10;6.07;;;;;;;-145.69;70.88;52377.06;5113637;28;20751;-80
2024/03/02 06:39:46;;;;;;;15.40;5.83;;;;;;;-145.69;70.99;52396.84;5113522;28;20201;-82
2024/03/02 06:42:13;;;;;;;13.37;5.90;;;;;;;-145.69;71.35;52390.91;5113518;28;20205;-80
2024/03/02 06:44:41;;;;;;;12.67;6.50;;;;;;;-145.69;71.37;52353.28;5113626;28;20594;-81
2024/03/02 06:47:08;;;;;;;12.87;5.53;;;;;;;-145.69;70.88;52414.69;5112898;28;20192;-81
2024/03/02 06:49:35;;;;;;;11.80;5.67;;;;;;;-145.69;70.76;52400.81;5113789;28;20229;-82
2024/03/02 06:52:03;;;;;;;14.20;5.53;;;;;;;-145.69;70.76;52375.06;5112991;28;20308;-81
2024/03/02 06:54:29;;;;;;;12.70;5.20;;;;;;;-145.69;71.17;52392.91;5113166;28;20204;-81
2024/03/02 06:56:56;;;;;;;10.73;5.40;;;;;;;-145.69;71.51;52373.09;5113031;28;20283;-81
2024/03/02 06:59:22;;;;;;;11.37;6.23;;;;;;;-145.69;71.35;52386.97;5112634;28;20656;-81
2024/03/02 07:01:49;;;;;;;17.70;6.13;;;;;;;-145.69;71.47;52384.97;5113323;28;20193;-81
2024/03/02 07:04:17;;;;;;;12.10;5.77;;;;;;;-145.69;71.61;52386.97;5113429;28;20205;-80
2024/03/02 07:06:43;;;;;;;12.60;5.40;;;;;;;-145.69;71.47;52361.22;5112197;28;20551;-81
2024/03/02 07:09:11;;;;;;;9.83;5.10;;;;;;;-145.69;71.52;52379.03;5112985;28;20220;-81
2024/03/02 07:11:38;;;;;;;9.17;4.83;;;;;;;-145.69;70.95;52388.94;5113471;28;20548;-81
2024/03/02 07:14:04;;;;;;;12.30;5.97;;;;;;;-145.69;70.82;52388.94;5112930;28;20198;-81
2024/03/02 07:16:32;;;;;;;14.27;6.13;;;;;;;-145.69;71.57;52396.84;5112619;28;20314;-81
2024/03/02 07:19:01;;;;;;;14.93;6.10;;;;;;;-145.69;71.62;52365.16;5113094;28;20197;-81
2024/03/02 07:21:28;;;;;;;17.30;6.27;;;;;;;-145.69;71.31;52400.81;5112916;28;20205;-80
2024/03/02 07:23:54;;;;;;;14.43;6.80;;;;;;;-145.69;71.46;52369.13;5112799;28;20205;-80
2024/03/02 07:26:22;;;;;;;12.93;6.10;;;;;;;-145.69;71.21;52369.13;5112813;28;20200;-80
2024/03/02 07:28:49;;;;;;;14.13;6.20;;;;;;;-145.69;70.84;52373.09;5112895;28;20762;-80
2024/03/02 07:31:16;;;;;;;16.07;7.60;;;;;;;-145.69;70.90;52361.22;5112503;28;20648;-81
2024/03/02 07:33:45;;;;;;;18.10;7.07;;;;;;;-145.69;71.18;52388.94;5113000;28;20204;-82
2024/03/02 07:36:11;;;;;;;13.63;6.40;;;;;;;-145.69;71.25;52365.16;5112823;28;20551;-81
2024/03/02 07:38:38;;;;;;;15.07;7.00;;;;;;;-145.69;71.43;52384.97;5112459;28;20539;-82
2024/03/02 07:41:05;;;;;;;17.67;8.07;;;;;;;-145.69;70.70;52353.28;5112797;28;20225;-81
2024/03/02 07:43:33;;;;;;;14.07;6.90;;;;;;;-145.69;70.41;52375.06;5112790;28;20197;-81
2024/03/02 07:46:00;;;;;;;15.27;7.17;;;;;;;-145.69;70.49;52400.81;5112811;28;20205;-81
2024/03/02 07:48:27;;;;;;;14.47;7.03;;;;;;;-145.69;69.82;52373.09;5112653;28;20726;-81
2024/03/02 07:50:54;;;;;;;20.67;7.37;;;;;;;-145.69;70.31;52398.84;5115367;28;20193;-81
2024/03/02 07:53:20;;;;;;;16.20;8.00;;;;;;;-145.69;69.73;52361.22;5116404;28;20201;-81
2024/03/02 07:55:46;;;;;;;15.30;7.33;;;;;;;-145.69;69.51;52377.06;5116398;28;20556;-81
2024/03/02 07:58:14;;;;;;;14.90;7.13;;;;;;;-145.69;69.88;52349.31;5116818;28;20206;-81
2024/03/02 08:00:42;;;;;;;14.57;6.93;;;;;;;-145.69;69.18;52365.16;5116464;27;20217;-81
2024/03/02 08:03:10;;;;;;;12.80;7.37;;;;;;;-145.69;68.98;52369.13;5116740;28;20197;-81
2024/03/02 08:05:37;;;;;;;16.10;7.63;;;;;;;-145.69;68.22;52384.97;5116678;28;20284;-82
2024/03/02 08:08:05;;;;;;;13.40;6.97;;;;;;;-145.69;68.91;52394.88;5116178;28;20193;-81
2024/03/02 08:10:31;;;;;;;13.47;7.03;;;;;;;-145.69;69.14;52420.63;5116398;28;20202;-82
2024/03/02 08:12:58;;;;;;;14.00;7.23;;;;;;;-145.69;68.46;52377.06;5115935;28;20200;-82
2024/03/02 08:15:24;;;;;;;14.93;7.20;;;;;;;-145.69;67.74;52345.38;5116672;28;20251;-82
2024/03/02 08:17:52;;;;;;;13.97;7.10;;;;;;;-145.69;67.35;52357.25;5116352;28;20202;-82
2024/03/02 08:20:18;;;;;;;13.57;6.70;;;;;;;-145.69;66.76;52367.16;5116545;28;20197;-83
2024/03/02 08:22:47;;;;;;;14.43;7.33;;;;;;;-145.69;66.26;52339.44;5115992;28;20210;-83
2024/03/02 08:25:13;;;;;;;13.80;5.97;;;;;;;-145.69;67.79;52345.38;5116482;28;20541;-82
2024/03/02 08:27:41;;;;;;;12.00;5.60;;;;;;;-145.69;67.18;52345.38;5116479;28;20208;-82
2024/03/02 08:30:10;;;;;;;10.23;5.77;;;;;;;-145.69;66.60;52347.34;5116174;28;20221;-81
2024/03/02 08:32:36;;;;;;;10.23;5.30;;;;;;;-145.69;66.18;52357.25;5116275;28;20197;-83
2024/03/02 08:35:05;;;;;;;8.93;5.00;;;;;;;-145.69;63.51;52321.59;5115993;28;20201;-81
2024/03/02 08:37:32;;;;;;;8.03;3.97;;;;;;;-145.69;63.37;52351.31;5115883;28;20193;-82
2024/03/02 08:39:58;;;;;;;6.90;3.70;;;;;;;-145.69;59.05;52355.28;5115926;28;20644;-81
2024/03/02 08:42:25;;;;;;;6.27;3.87;;;;;;;-145.69;58.03;52321.59;5116372;28;20197;-83
2024/03/02 08:44:53;;;;;;;6.77;3.90;;;;;;;-145.69;59.69;52345.38;5115857;28;20229;-81
2024/03/02 08:47:19;;;;;;;6.43;3.20;;;;;;;-145.69;58.58;52321.59;5115771;28;20197;-81
2024/03/02 08:49:46;;;;;;;5.07;2.80;;;;;;;-145.69;58.53;52353.28;5115378;28;20222;-83
2024/03/02 08:52:14;;;;;;;4.80;3.30;;;;;;;-145.69;57.78;52305.75;5127966;27;20228;-81
2024/03/02 08:54:40;;;;;;;4.83;2.70;;;;;;;-145.69;57.76;52325.56;5134601;27;20216;-83
2024/03/02 08:57:07;;;;;;;5.30;3.27;;;;;;;-145.69;56.63;52315.66;5115512;28;20198;-82
2024/03/02 08:59:33;;;;;;;9.37;4.60;;;;;;;-145.69;57.34;52258.22;5115838;27;20301;-81
2024/03/02 09:02:00;;;;;;;7.23;4.17;;;;;;;-145.69;57.23;52329.53;5114187;28;20216;-82
2024/03/02 09:04:26;;;;;;;6.77;3.53;;;;;;;-145.69;56.85;52305.75;5114668;28;20598;-82
2024/03/02 09:06:53;;;;;;;4.70;3.00;;;;;;;-145.69;55.56;52309.72;5114882;28;20212;-82
2024/03/02 09:09:21;;;;;;;5.03;3.10;;;;;;;-145.69;54.99;52301.81;5114664;28;20224;-82
2024/03/02 09:11:47;;;;;;;4.03;2.80;;;;;;;-145.69;54.58;52331.50;5112904;28;20208;-81
2024/03/02 09:14:14;;;;;;;5.57;3.10;;;;;;;-145.69;54.06;52287.94;5113820;28;20586;-80
2024/03/02 09:16:41;;;;;;;3.93;2.90;;;;;;;-145.69;53.02;52264.16;5115673;28;20216;-82
2024/03/02 09:19:07;;;;;;;5.43;3.20;;;;;;;-145.69;53.10;52301.81;5115655;28;20205;-81
2024/03/02 09:21:34;;;;;;;5.73;2.93;;;;;;;-145.69;53.76;52301.81;5115145;28;20216;-80
2024/03/02 09:24:02;;;;;;;8.57;4.07;;;;;;;-145.69;53.95;52309.72;5115357;28;20292;-81
2024/03/02 09:26:30;;;;;;;7.13;3.70;;;;;;;-145.69;54.23;52278.03;5124103;27;20193;-82
2024/03/02 09:28:56;;;;;;;6.07;3.50;;;;;;;-145.69;54.86;52317.66;5119738;27;20228;-81
2024/03/02 09:31:23;;;;;;;5.63;2.83;;;;;;;-145.69;54.22;52280.00;5115047;28;20201;-81
2024/03/02 09:33:49;;;;;;;6.53;3.20;;;;;;;-145.69;54.69;52297.84;5115142;27;20560;-82
2024/03/02 09:36:19;;;;;;;4.63;2.77;;;;;;;-145.69;54.33;52285.97;5118122;28;20193;-83
2024/03/02 09:38:45;;;;;;;5.60;3.27;;;;;;;-145.69;55.84;52282.00;5117309;28;20624;-83
2024/03/02 09:41:12;;;;;;;6.13;3.10;;;;;;;-145.69;54.25;52297.84;5116993;27;20220;-83
2024/03/02 09:43:41;;;;;;;4.57;2.93;;;;;;;-145.69;54.82;52234.47;5116809;28;20201;-83
2024/03/02 09:46:09;;;;;;;3.70;2.77;;;;;;;-145.69;53.76;52278.03;5116402;28;20200;-83
2024/03/02 09:48:36;;;;;;;5.27;2.90;;;;;;;-145.69;52.84;52254.28;5118982;28;20197;-83
2024/03/02 09:51:03;;;;;;;3.63;2.20;;;;;;;-145.69;51.72;52285.97;5117308;28;20205;-83
2024/03/02 09:53:32;;;;;;;3.07;1.50;;;;;;;-145.69;50.50;52276.06;5117229;28;20201;-82
2024/03/02 09:56:02;;;;;;;3.37;2.30;;;;;;;-145.69;50.82;52274.06;5116103;28;20201;-83
2024/03/02 09:58:28;;;;;;;3.67;2.40;;;;;;;-145.69;50.91;52289.91;5115975;28;20197;-82
2024/03/02 10:00:56;;;;;;;3.03;1.73;;;;;;;-145.69;50.02;52250.31;5115521;28;20206;-82
2024/03/02 10:03:24;;;;;;;2.83;1.73;;;;;;;-145.69;48.99;52266.16;5114315;28;20229;-81
2024/03/02 10:05:51;;;;;;;3.10;1.55;;;;;;;-145.69;48.79;52274.06;5114608;28;20212;-82
2024/03/02 10:08:18;;;;;;;3.67;1.90;;;;;;;-145.69;48.69;52266.16;5114343;28;20190;-82
2024/03/02 10:10:44;;;;;;;2.13;1.30;;;;;;;-145.69;45.82;52238.44;5114458;28;20225;-83
2024/03/02 10:13:12;;;;;;;1.37;0.97;;;;;;;-145.69;46.10;52274.06;5113949;28;20204;-82
2024/03/02 10:15:41;;;;;;;0.80;0.70;;;;;;;-145.69;43.74;52236.44;5113726;28;20583;-82
2024/03/02 10:18:12;;;;;;;1.80;0.77;;;;;;;-145.69;43.65;52258.22;5114438;28;20197;-82
2024/03/02 10:20:40;;;;;;;0.77;0.75;;;;;;;-145.69;43.25;52250.31;5114390;28;20284;-82
2024/03/02 10:23:14;;;;;;;1.53;0.97;;;;;;;-145.69;42.71;52256.25;5132029;27;20200;-82
2024/03/02 10:25:41;;;;;;;0.80;0.77;;;;;;;-145.69;43.11;52250.31;5134511;27;20231;-82
2024/03/02 10:28:08;;;;;;;1.45;1.10;;;;;;;-145.69;43.33;52258.22;5134417;27;20207;-82
2024/03/02 10:30:35;;;;;;;1.73;1.15;;;;;;;-145.69;42.49;52266.16;5118402;27;20220;-82
2024/03/02 10:33:02;;;;;;;2.22;1.40;;;;;;;-145.69;43.75;52250.31;5113831;28;20204;-81
2024/03/02 10:35:32;;;;;;;1.60;1.13;;;;;;;-145.69;43.34;52236.44;5113917;28;20209;-82
2024/03/02 10:37:59;;;;;;;1.30;1.10;;;;;;;-145.69;43.53;52222.59;5114052;28;20610;-81
2024/03/02 10:40:27;;;;;;;1.58;1.17;;;;;;;-145.69;43.54;52240.41;5113572;28;20228;-82
2024/03/02 10:42:54;;;;;;;4.40;2.17;;;;;;;-145.69;44.07;52240.41;5113089;27;20224;-84
2024/03/02 10:45:22;;;;;;;1.80;1.40;;;;;;;-145.69;43.81;52234.47;5102802;28;20210;-80
2024/03/02 10:47:49;;;;;;;1.60;1.15;;;;;;;-145.69;44.43;52254.28;5093371;28;20198;-80
2024/03/02 10:50:15;;;;;;;3.00;1.15;;;;;;;-145.69;43.39;52240.41;5095923;28;20320;-81
2024/03/02 10:52:43;;;;;;;2.35;1.30;;;;;;;-145.69;43.29;52242.38;5113032;28;20229;-81
2024/03/02 10:55:12;;;;;;;2.67;1.02;;;;;;;-145.69;43.32;52234.47;5111276;27;20205;-82
2024/03/02 10:57:43;;;;;;;1.38;1.00;;;;;;;-145.69;42.45;52242.38;5113363;28;20201;-82
2024/03/02 11:00:14;;;;;;;2.40;0.93;;;;;;;-145.69;41.58;52202.78;5112380;28;20590;-81
2024/03/02 11:02:48;;;;;;;2.15;0.80;;;;;;;-145.69;41.24;52210.72;5112406;28;20202;-81
2024/03/02 11:05:27;;;;;;;3.25;1.30;;;;;;;-145.69;41.83;52236.44;5096420;28;20200;-82
2024/03/02 11:08:04;;;;;;;2.17;1.00;;;;;;;-145.69;42.79;52214.66;5093023;28;20198;-83
2024/03/02 11:10:36;;;;;;;1.65;1.10;;;;;;;-145.69;42.03;52220.59;5092808;28;20316;-81
2024/03/02 11:13:05;;;;;;;2.08;1.30;;;;;;;-145.69;40.72;52206.75;5097764;28;20201;-82
2024/03/02 11:15:36;;;;;;;2.00;1.13;;;;;;;-145.69;41.62;52206.75;5115509;27;20202;-83